Time;durP1;ratioP1;P1;durP2;ratioP2;P2;SDS_P1;SDS_P2;PMS_P1;PMS_P2;Temp;Humidity;BMP_temperature;BMP_pressure;BME280_temperature;BME280_humidity;BME280_pressure;Samples;Min_cycle;Max_cycle;Signal;HPM_P1;HPM_P2
2024/03/02 00:02:20;;;;;;;9.52;1.58;;;;;;;;;;5025417;28;20053;-73
2024/03/02 00:04:53;;;;;;;2.88;0.60;;;;;;;;;;5024701;28;20420;-74
2024/03/02 00:07:24;;;;;;;6.80;1.38;;;;;;;;;;5024852;28;20060;-72
2024/03/02 00:09:55;;;;;;;8.57;1.50;;;;;;;;;;5024278;28;20054;-73
2024/03/02 00:12:25;;;;;;;8.18;1.42;;;;;;;;;;5024097;28;20519;-75
2024/03/02 00:14:56;;;;;;;4.35;1.08;;;;;;;;;;5024276;28;20049;-72
2024/03/02 00:17:27;;;;;;;8.90;2.38;;;;;;;;;;5024833;28;20045;-72
2024/03/02 00:19:59;;;;;;;6.65;1.20;;;;;;;;;;5025128;28;20052;-72
2024/03/02 00:22:29;;;;;;;4.15;0.95;;;;;;;;;;5022480;28;20057;-72
2024/03/02 00:25:08;;;;;;;8.75;1.15;;;;;;;;;;5024058;28;20080;-72
2024/03/02 00:27:40;;;;;;;8.18;1.40;;;;;;;;;;5020948;28;20053;-72
2024/03/02 00:30:55;;;;;;;3.25;0.93;;;;;;;;;;5021995;28;20045;-73
2024/03/02 00:33:33;;;;;;;8.85;0.93;;;;;;;;;;5022471;28;20508;-73
2024/03/02 00:36:05;;;;;;;5.88;1.42;;;;;;;;;;5023291;28;20527;-73
2024/03/02 00:38:49;;;;;;;10.88;1.13;;;;;;;;;;5022868;28;20061;-74
2024/03/02 00:41:39;;;;;;;5.55;1.20;;;;;;;;;;5024276;28;20056;-73
2024/03/02 00:44:16;;;;;;;5.28;1.00;;;;;;;;;;5022551;28;20053;-73
2024/03/02 00:46:46;;;;;;;4.82;1.33;;;;;;;;;;5024377;28;20527;-72
2024/03/02 00:49:23;;;;;;;7.32;1.30;;;;;;;;;;5024546;28;20041;-73
2024/03/02 00:51:56;;;;;;;6.50;1.45;;;;;;;;;;5024135;28;20390;-72
2024/03/02 00:54:28;;;;;;;9.65;1.33;;;;;;;;;;5022636;28;20055;-71
2024/03/02 00:56:59;;;;;;;5.63;1.35;;;;;;;;;;5055451;28;20505;-74
2024/03/02 00:59:31;;;;;;;1.95;0.80;;;;;;;;;;5023589;28;20061;-72
2024/03/02 01:02:03;;;;;;;7.78;1.00;;;;;;;;;;5023724;28;20526;-72
2024/03/02 01:04:34;;;;;;;15.77;1.50;;;;;;;;;;5023702;28;20492;-73
2024/03/02 01:07:05;;;;;;;3.30;0.93;;;;;;;;;;5022361;28;20049;-73
2024/03/02 01:09:35;;;;;;;11.18;1.30;;;;;;;;;;5023779;28;20065;-81
2024/03/02 01:12:07;;;;;;;3.60;1.10;;;;;;;;;;5023640;28;20057;-73
2024/03/02 01:14:38;;;;;;;5.35;1.25;;;;;;;;;;5023509;28;20060;-72
2024/03/02 01:17:09;;;;;;;2.40;0.85;;;;;;;;;;5023038;28;20049;-73
2024/03/02 01:19:40;;;;;;;5.15;1.08;;;;;;;;;;5022806;28;20054;-73
2024/03/02 01:22:12;;;;;;;5.93;0.93;;;;;;;;;;5055163;28;20516;-72
2024/03/02 01:24:44;;;;;;;4.93;1.00;;;;;;;;;;5023875;28;20056;-77
2024/03/02 01:27:15;;;;;;;3.50;0.90;;;;;;;;;;5023695;28;20464;-73
2024/03/02 01:29:45;;;;;;;3.50;0.90;;;;;;;;;;5037848;28;20401;-73
2024/03/02 01:32:47;;;;;;;2.05;1.02;;;;;;;;;;5023470;28;20060;-76
2024/03/02 01:35:19;;;;;;;4.22;1.02;;;;;;;;;;5022852;28;20633;-72
2024/03/02 01:37:49;;;;;;;4.70;0.90;;;;;;;;;;5022497;28;20056;-73
2024/03/02 01:40:20;;;;;;;7.32;1.05;;;;;;;;;;5022874;28;20042;-71
2024/03/02 01:42:59;;;;;;;4.55;0.95;;;;;;;;;;5022459;28;20057;-71
2024/03/02 01:48:34;;;;;;;2.45;0.95;;;;;;;;;;5022732;28;20506;-72
2024/03/02 01:51:13;;;;;;;5.13;0.70;;;;;;;;;;5022811;28;20408;-72
2024/03/02 01:53:44;;;;;;;3.60;1.08;;;;;;;;;;5022827;28;20053;-72
2024/03/02 01:56:43;;;;;;;6.43;1.17;;;;;;;;;;5023055;28;20056;-72
2024/03/02 01:59:14;;;;;;;6.85;1.05;;;;;;;;;;5022513;28;20049;-73
2024/03/02 02:02:01;;;;;;;5.55;1.17;;;;;;;;;;5022970;28;20390;-73
2024/03/02 02:04:34;;;;;;;7.65;1.45;;;;;;;;;;5022870;28;20061;-73
2024/03/02 02:10:12;;;;;;;4.50;1.48;;;;;;;;;;5023131;28;20057;-76
2024/03/02 02:12:43;;;;;;;5.47;1.30;;;;;;;;;;5022921;28;20056;-72
2024/03/02 02:15:28;;;;;;;9.82;1.33;;;;;;;;;;5023222;28;20416;-73
2024/03/02 02:19:03;;;;;;;4.63;1.00;;;;;;;;;;5022341;28;20050;-73
2024/03/02 02:21:35;;;;;;;3.13;1.10;;;;;;;;;;5053465;28;20064;-72
2024/03/02 02:24:05;;;;;;;4.45;1.10;;;;;;;;;;5022168;28;20650;-73
2024/03/02 02:26:35;;;;;;;7.25;1.20;;;;;;;;;;5022575;28;20045;-72
2024/03/02 02:29:07;;;;;;;6.93;1.25;;;;;;;;;;5022553;28;20045;-72
2024/03/02 02:31:42;;;;;;;7.18;1.70;;;;;;;;;;5022478;28;20052;-72
2024/03/02 02:34:24;;;;;;;7.43;1.30;;;;;;;;;;5022543;28;20049;-73
2024/03/02 02:37:01;;;;;;;5.15;1.30;;;;;;;;;;5022768;28;20412;-72
2024/03/02 02:39:33;;;;;;;7.05;1.55;;;;;;;;;;5022048;28;20049;-73
2024/03/02 02:42:04;;;;;;;5.32;1.23;;;;;;;;;;5022826;28;20099;-72
2024/03/02 02:44:34;;;;;;;4.28;1.08;;;;;;;;;;5022875;28;20053;-73
2024/03/02 02:47:05;;;;;;;3.50;0.93;;;;;;;;;;5022379;28;20400;-72
2024/03/02 02:49:37;;;;;;;5.43;1.00;;;;;;;;;;5021755;28;20057;-72
2024/03/02 02:52:08;;;;;;;5.40;1.00;;;;;;;;;;5023060;28;20045;-73
2024/03/02 02:55:27;;;;;;;3.63;1.10;;;;;;;;;;5022274;28;20049;-72
2024/03/02 02:57:58;;;;;;;4.32;1.20;;;;;;;;;;5022068;28;20049;-73
2024/03/02 03:00:47;;;;;;;3.65;1.15;;;;;;;;;;5021827;28;20053;-72
2024/03/02 03:04:23;;;;;;;3.00;0.98;;;;;;;;;;5035937;28;20045;-73
2024/03/02 03:06:55;;;;;;;7.45;1.30;;;;;;;;;;5053233;28;20053;-73
2024/03/02 03:09:26;;;;;;;12.85;1.75;;;;;;;;;;5004560;28;20058;-73
2024/03/02 03:11:57;;;;;;;3.72;0.90;;;;;;;;;;5021808;28;20076;-72
2024/03/02 03:14:27;;;;;;;6.53;0.90;;;;;;;;;;5021657;28;20052;-72
2024/03/02 03:16:58;;;;;;;5.78;1.13;;;;;;;;;;5021986;28;20099;-71
2024/03/02 03:19:28;;;;;;;4.30;0.80;;;;;;;;;;5022010;28;20081;-72
2024/03/02 03:22:10;;;;;;;7.45;1.33;;;;;;;;;;5022115;28;20041;-73
2024/03/02 03:24:42;;;;;;;7.72;1.00;;;;;;;;;;5020441;28;20053;-72
2024/03/02 03:27:17;;;;;;;5.82;0.98;;;;;;;;;;5021837;28;20057;-73
2024/03/02 03:29:48;;;;;;;5.60;1.33;;;;;;;;;;5022039;28;20042;-72
2024/03/02 03:32:18;;;;;;;4.03;0.95;;;;;;;;;;5022201;28;20056;-72
2024/03/02 03:34:49;;;;;;;5.32;1.10;;;;;;;;;;5025703;28;20049;-72
2024/03/02 03:37:21;;;;;;;3.10;1.08;;;;;;;;;;5025343;28;20512;-71
2024/03/02 03:39:52;;;;;;;4.63;1.02;;;;;;;;;;5025552;28;20088;-73
2024/03/02 03:42:22;;;;;;;3.65;0.90;;;;;;;;;;5024948;28;20394;-72
2024/03/02 03:44:52;;;;;;;3.03;0.80;;;;;;;;;;5024836;28;20045;-73
2024/03/02 03:47:23;;;;;;;3.88;1.00;;;;;;;;;;5025459;28;20045;-72
2024/03/02 03:49:55;;;;;;;4.93;1.10;;;;;;;;;;5024908;28;20058;-72
2024/03/02 03:52:25;;;;;;;3.60;0.90;;;;;;;;;;5025252;28;20041;-73
2024/03/02 03:54:55;;;;;;;5.60;0.93;;;;;;;;;;5024368;28;20053;-72
2024/03/02 03:57:26;;;;;;;3.70;1.00;;;;;;;;;;5024785;28;20056;-72
2024/03/02 03:59:57;;;;;;;7.10;1.23;;;;;;;;;;5024694;28;20068;-72
2024/03/02 04:02:28;;;;;;;6.82;0.80;;;;;;;;;;5024689;28;20046;-72
2024/03/02 04:04:59;;;;;;;2.55;0.70;;;;;;;;;;5025443;28;20045;-73
2024/03/02 04:07:29;;;;;;;7.30;1.02;;;;;;;;;;5025142;28;20052;-73
2024/03/02 04:10:00;;;;;;;5.13;0.93;;;;;;;;;;5025075;28;20057;-72
2024/03/02 04:12:31;;;;;;;3.47;0.85;;;;;;;;;;5024991;28;20056;-72
2024/03/02 04:15:03;;;;;;;8.38;1.10;;;;;;;;;;5024540;28;20504;-72
2024/03/02 04:17:35;;;;;;;1.75;0.50;;;;;;;;;;5024083;28;20045;-73
2024/03/02 04:20:07;;;;;;;7.20;1.25;;;;;;;;;;5023225;28;20057;-72
2024/03/02 04:22:38;;;;;;;3.45;1.38;;;;;;;;;;5024887;28;20422;-72
2024/03/02 04:25:09;;;;;;;6.85;0.73;;;;;;;;;;5024480;28;20534;-73
2024/03/02 04:27:39;;;;;;;4.25;0.90;;;;;;;;;;5024511;28;20038;-73
2024/03/02 04:30:11;;;;;;;5.53;1.17;;;;;;;;;;5024334;28;20120;-73
2024/03/02 04:32:46;;;;;;;5.88;1.00;;;;;;;;;;5024675;28;20042;-73
2024/03/02 04:35:16;;;;;;;7.38;1.10;;;;;;;;;;5024517;28;20527;-73
2024/03/02 04:37:46;;;;;;;4.93;0.90;;;;;;;;;;5024107;28;20045;-72
2024/03/02 04:40:16;;;;;;;7.18;1.27;;;;;;;;;;5022974;28;20053;-73
2024/03/02 04:42:48;;;;;;;3.88;0.82;;;;;;;;;;5023719;28;20500;-72
2024/03/02 04:45:19;;;;;;;2.60;1.00;;;;;;;;;;5022359;28;20060;-73
2024/03/02 04:47:49;;;;;;;6.43;0.98;;;;;;;;;;5024270;28;20056;-72
2024/03/02 04:50:19;;;;;;;6.70;1.00;;;;;;;;;;5023644;28;20515;-72
2024/03/02 04:52:52;;;;;;;3.50;0.70;;;;;;;;;;5024598;28;20045;-72
2024/03/02 04:57:58;;;;;;;6.07;0.90;;;;;;;;;;5024003;28;20416;-72
2024/03/02 05:00:28;;;;;;;3.05;0.80;;;;;;;;;;5022183;28;20408;-73
2024/03/02 05:02:59;;;;;;;6.68;0.85;;;;;;;;;;5022635;28;20072;-73
2024/03/02 05:05:29;;;;;;;3.08;0.90;;;;;;;;;;5055303;28;20052;-71
2024/03/02 05:08:01;;;;;;;3.75;0.80;;;;;;;;;;5023837;28;20045;-73
2024/03/02 05:10:31;;;;;;;4.10;0.93;;;;;;;;;;5054335;28;20053;-72
2024/03/02 05:13:02;;;;;;;5.05;0.90;;;;;;;;;;5023585;28;20087;-73
2024/03/02 05:15:33;;;;;;;3.20;0.63;;;;;;;;;;5023333;28;20041;-73
2024/03/02 05:18:06;;;;;;;4.80;0.95;;;;;;;;;;5023630;28;20064;-73
2024/03/02 05:20:36;;;;;;;4.25;0.93;;;;;;;;;;5023444;28;20054;-72
2024/03/02 05:23:06;;;;;;;3.88;1.00;;;;;;;;;;5023864;28;20033;-73
2024/03/02 05:25:37;;;;;;;6.80;1.58;;;;;;;;;;5021652;28;20052;-72
2024/03/02 05:28:08;;;;;;;1.23;0.90;;;;;;;;;;5023801;28;20049;-73
2024/03/02 05:30:39;;;;;;;2.58;0.95;;;;;;;;;;5023057;28;20521;-72
2024/03/02 05:33:09;;;;;;;3.72;1.00;;;;;;;;;;5023258;28;20854;-73
2024/03/02 05:35:39;;;;;;;4.88;1.08;;;;;;;;;;5023762;28;20049;-72
2024/03/02 05:38:09;;;;;;;4.00;0.63;;;;;;;;;;5021881;28;20419;-73
2024/03/02 05:40:40;;;;;;;5.78;1.10;;;;;;;;;;5022830;28;20049;-72
2024/03/02 05:43:12;;;;;;;5.28;1.40;;;;;;;;;;5023046;28;20537;-73
2024/03/02 05:45:43;;;;;;;3.00;0.90;;;;;;;;;;5022952;28;20050;-72
2024/03/02 05:48:14;;;;;;;2.47;0.93;;;;;;;;;;5021446;28;20674;-72
2024/03/02 05:50:45;;;;;;;2.25;0.70;;;;;;;;;;5023157;28;20045;-71
2024/03/02 05:53:16;;;;;;;2.40;0.85;;;;;;;;;;5023048;28;20042;-72
2024/03/02 05:55:47;;;;;;;4.30;1.20;;;;;;;;;;5022805;28;20045;-73
2024/03/02 05:58:33;;;;;;;8.02;0.90;;;;;;;;;;5022433;28;20052;-71
2024/03/02 06:01:05;;;;;;;3.15;0.80;;;;;;;;;;5022802;28;20060;-73
2024/03/02 06:03:36;;;;;;;3.15;0.98;;;;;;;;;;5021519;28;20053;-72
2024/03/02 06:06:07;;;;;;;5.95;1.08;;;;;;;;;;5022528;28;20041;-73
2024/03/02 06:08:37;;;;;;;4.38;0.93;;;;;;;;;;5022583;28;20056;-72
2024/03/02 06:11:09;;;;;;;5.30;0.95;;;;;;;;;;5022297;28;20052;-72
2024/03/02 06:13:40;;;;;;;3.67;1.02;;;;;;;;;;5023188;28;20053;-72
2024/03/02 06:16:10;;;;;;;6.60;0.80;;;;;;;;;;5022895;28;20518;-72
2024/03/02 06:18:40;;;;;;;4.22;0.80;;;;;;;;;;5054836;28;20053;-72
2024/03/02 06:21:10;;;;;;;2.97;0.80;;;;;;;;;;5022402;28;20045;-73
2024/03/02 06:23:41;;;;;;;3.58;1.15;;;;;;;;;;5021949;28;20064;-73
2024/03/02 06:26:12;;;;;;;3.13;0.95;;;;;;;;;;5022196;28;20041;-72
2024/03/02 06:28:42;;;;;;;3.65;0.95;;;;;;;;;;5022344;28;20049;-72
2024/03/02 06:31:13;;;;;;;4.25;1.05;;;;;;;;;;5022398;28;20049;-72
2024/03/02 06:33:45;;;;;;;1.98;0.75;;;;;;;;;;5022171;28;20493;-72
2024/03/02 06:36:17;;;;;;;3.92;1.10;;;;;;;;;;5021122;28;20067;-73
2024/03/02 06:38:47;;;;;;;2.65;0.93;;;;;;;;;;5021748;28;20050;-72
2024/03/02 06:41:17;;;;;;;5.57;1.10;;;;;;;;;;5021917;28;20054;-73
2024/03/02 06:43:47;;;;;;;3.80;1.10;;;;;;;;;;5022001;28;20053;-72
2024/03/02 06:46:18;;;;;;;4.32;1.00;;;;;;;;;;5022631;28;20057;-72
2024/03/02 06:48:51;;;;;;;2.95;0.95;;;;;;;;;;5022368;28;20060;-73
2024/03/02 06:51:21;;;;;;;4.07;0.77;;;;;;;;;;5022653;28;20037;-72
2024/03/02 06:53:52;;;;;;;3.75;1.42;;;;;;;;;;5023466;28;20061;-73
2024/03/02 06:56:23;;;;;;;3.08;1.02;;;;;;;;;;5022412;28;20049;-73
2024/03/02 06:58:55;;;;;;;1.13;0.70;;;;;;;;;;5022310;28;20113;-73
2024/03/02 07:01:26;;;;;;;2.63;0.90;;;;;;;;;;5020070;28;20531;-72
2024/03/02 07:03:56;;;;;;;5.35;0.85;;;;;;;;;;5022751;28;20389;-72
2024/03/02 07:06:27;;;;;;;7.78;1.20;;;;;;;;;;5022747;28;20061;-72
2024/03/02 07:08:58;;;;;;;6.35;1.23;;;;;;;;;;5025833;28;20064;-73
2024/03/02 07:11:28;;;;;;;4.30;1.15;;;;;;;;;;5025904;28;20045;-73
2024/03/02 07:13:58;;;;;;;4.65;0.95;;;;;;;;;;5026041;28;20049;-72
2024/03/02 07:16:29;;;;;;;6.15;1.05;;;;;;;;;;5025592;28;20076;-72
2024/03/02 07:19:01;;;;;;;3.58;1.15;;;;;;;;;;5025378;28;20049;-72
2024/03/02 07:21:35;;;;;;;6.43;1.02;;;;;;;;;;5025799;28;20527;-72
2024/03/02 07:24:06;;;;;;;3.60;1.08;;;;;;;;;;5025200;28;20058;-73
2024/03/02 07:26:36;;;;;;;11.77;0.90;;;;;;;;;;5025190;28;20057;-73
2024/03/02 07:29:10;;;;;;;1.65;0.70;;;;;;;;;;5024930;28;20045;-71
2024/03/02 07:31:41;;;;;;;4.25;0.98;;;;;;;;;;5025174;28;20045;-73
2024/03/02 07:34:12;;;;;;;2.10;0.82;;;;;;;;;;5025590;28;20049;-73
2024/03/02 07:36:42;;;;;;;4.65;1.20;;;;;;;;;;5025280;28;20052;-71
2024/03/02 07:39:12;;;;;;;3.88;1.00;;;;;;;;;;5025771;28;20053;-72
2024/03/02 07:41:43;;;;;;;3.08;0.93;;;;;;;;;;5025481;28;20056;-72
2024/03/02 07:44:15;;;;;;;2.22;0.75;;;;;;;;;;5056627;28;20053;-72
2024/03/02 07:46:51;;;;;;;5.13;1.20;;;;;;;;;;5026056;28;20049;-71
2024/03/02 07:49:22;;;;;;;3.67;1.10;;;;;;;;;;5024940;28;20053;-72
2024/03/02 07:51:55;;;;;;;5.90;1.38;;;;;;;;;;5025439;28;20049;-73
2024/03/02 07:54:26;;;;;;;9.25;1.17;;;;;;;;;;5056823;28;20046;-72
2024/03/02 07:56:56;;;;;;;4.72;1.10;;;;;;;;;;5025444;28;20049;-72
2024/03/02 07:59:26;;;;;;;2.67;0.90;;;;;;;;;;5024130;28;20056;-73
2024/03/02 08:01:58;;;;;;;2.95;0.98;;;;;;;;;;5024705;28;20052;-72
2024/03/02 08:04:29;;;;;;;4.70;1.20;;;;;;;;;;5025001;28;20053;-71
2024/03/02 08:07:00;;;;;;;1.48;0.63;;;;;;;;;;5024796;28;20056;-72
2024/03/02 08:09:30;;;;;;;2.63;0.85;;;;;;;;;;5024541;28;20053;-72
2024/03/02 08:12:00;;;;;;;2.72;0.90;;;;;;;;;;5024964;28;20046;-71
2024/03/02 08:14:30;;;;;;;1.50;0.82;;;;;;;;;;5024590;28;20049;-73
2024/03/02 08:17:09;;;;;;;2.03;1.20;;;;;;;;;;5024567;28;21082;-73
2024/03/02 08:19:41;;;;;;;8.30;1.45;;;;;;;;;;5023398;28;20065;-72
2024/03/02 08:22:12;;;;;;;6.05;0.88;;;;;;;;;;5055784;28;20805;-73
2024/03/02 08:24:43;;;;;;;4.32;0.98;;;;;;;;;;5024041;28;20050;-72
2024/03/02 08:27:14;;;;;;;3.47;0.90;;;;;;;;;;5024690;28;20064;-73
2024/03/02 08:29:45;;;;;;;1.27;0.90;;;;;;;;;;5025237;28;21111;-72
2024/03/02 08:32:17;;;;;;;3.15;1.10;;;;;;;;;;5024430;28;20544;-74
2024/03/02 08:34:47;;;;;;;2.72;0.77;;;;;;;;;;5024527;28;20377;-74
2024/03/02 08:37:18;;;;;;;1.35;0.73;;;;;;;;;;5023630;28;20053;-73
2024/03/02 08:39:49;;;;;;;3.35;0.85;;;;;;;;;;5024228;28;20057;-73
2024/03/02 08:42:20;;;;;;;2.20;0.95;;;;;;;;;;5023800;28;20053;-73
2024/03/02 08:44:52;;;;;;;6.15;1.00;;;;;;;;;;5024311;28;20056;-73
2024/03/02 08:47:23;;;;;;;3.67;0.80;;;;;;;;;;5024090;28;20064;-71
2024/03/02 08:49:54;;;;;;;1.33;0.77;;;;;;;;;;5023520;28;20058;-73
2024/03/02 08:52:29;;;;;;;4.05;1.30;;;;;;;;;;5024432;28;20049;-73
2024/03/02 08:54:59;;;;;;;5.80;0.98;;;;;;;;;;5023706;28;20072;-73
2024/03/02 08:57:30;;;;;;;1.88;0.88;;;;;;;;;;5056257;28;20053;-74
2024/03/02 09:00:01;;;;;;;4.90;0.90;;;;;;;;;;5023676;28;20050;-74
2024/03/02 09:02:31;;;;;;;4.03;0.82;;;;;;;;;;5022564;28;20519;-72
2024/03/02 09:05:01;;;;;;;1.67;0.82;;;;;;;;;;5023386;28;20045;-72
2024/03/02 09:07:32;;;;;;;3.78;1.08;;;;;;;;;;5023820;28;20112;-74
2024/03/02 09:10:04;;;;;;;3.97;0.80;;;;;;;;;;5023541;28;20056;-73
2024/03/02 09:12:35;;;;;;;2.10;0.70;;;;;;;;;;5023627;28;20773;-74
2024/03/02 09:15:06;;;;;;;1.55;0.90;;;;;;;;;;5023693;28;20053;-73
2024/03/02 09:17:37;;;;;;;3.00;1.00;;;;;;;;;;5021864;28;20064;-72
2024/03/02 09:20:10;;;;;;;5.75;1.10;;;;;;;;;;5023512;28;20064;-71
2024/03/02 09:22:41;;;;;;;3.40;0.90;;;;;;;;;;5023628;28;20049;-76
2024/03/02 09:25:11;;;;;;;4.95;1.13;;;;;;;;;;5023438;28;20046;-74
2024/03/02 09:27:42;;;;;;;2.60;1.10;;;;;;;;;;5023451;28;20629;-73
2024/03/02 09:30:14;;;;;;;2.63;0.80;;;;;;;;;;5023038;28;20038;-73
2024/03/02 09:32:44;;;;;;;2.95;0.98;;;;;;;;;;5023386;28;20500;-72
2024/03/02 09:35:18;;;;;;;2.35;1.10;;;;;;;;;;5023171;28;20095;-78
2024/03/02 09:37:48;;;;;;;5.57;1.13;;;;;;;;;;5022643;28;20045;-73
2024/03/02 09:40:22;;;;;;;1.63;1.20;;;;;;;;;;5023322;28;20388;-73
2024/03/02 09:42:53;;;;;;;6.00;0.90;;;;;;;;;;5023769;28;20408;-73
2024/03/02 09:45:26;;;;;;;4.97;1.30;;;;;;;;;;5023565;28;20539;-73
2024/03/02 09:47:57;;;;;;;6.47;1.02;;;;;;;;;;5023162;28;20061;-74
2024/03/02 09:50:29;;;;;;;4.68;1.17;;;;;;;;;;5023366;28;20048;-72
2024/03/02 09:52:59;;;;;;;3.95;1.13;;;;;;;;;;5022856;28;20057;-72
2024/03/02 09:55:29;;;;;;;9.27;1.33;;;;;;;;;;5056482;28;20508;-72
2024/03/02 09:58:00;;;;;;;3.97;1.52;;;;;;;;;;5041779;28;20049;-78
2024/03/02 10:00:32;;;;;;;5.40;1.23;;;;;;;;;;5042442;28;20045;-73
2024/03/02 10:03:04;;;;;;;5.43;1.10;;;;;;;;;;5042554;28;21140;-73
2024/03/02 10:05:35;;;;;;;4.95;1.30;;;;;;;;;;5042473;28;20782;-73
2024/03/02 10:08:05;;;;;;;3.30;1.50;;;;;;;;;;5042220;28;20112;-73
2024/03/02 10:10:40;;;;;;;5.47;1.00;;;;;;;;;;5042156;28;20060;-74
2024/03/02 10:13:13;;;;;;;5.68;1.27;;;;;;;;;;5042244;28;20056;-75
2024/03/02 10:15:45;;;;;;;3.85;1.30;;;;;;;;;;5041690;28;20057;-73
2024/03/02 10:18:26;;;;;;;4.68;1.20;;;;;;;;;;5042456;28;20530;-73
2024/03/02 10:21:15;;;;;;;3.83;0.77;;;;;;;;;;5041313;28;20631;-71
2024/03/02 10:23:45;;;;;;;6.68;1.20;;;;;;;;;;5041096;28;20795;-77
2024/03/02 10:26:18;;;;;;;1.95;0.85;;;;;;;;;;5042373;28;20057;-76
2024/03/02 10:28:58;;;;;;;1.70;1.20;;;;;;;;;;5043194;28;20492;-72
2024/03/02 10:31:30;;;;;;;4.38;1.33;;;;;;;;;;5042161;28;20063;-74
2024/03/02 10:34:02;;;;;;;7.55;1.70;;;;;;;;;;5040760;28;20049;-73
2024/03/02 10:36:36;;;;;;;10.95;1.88;;;;;;;;;;5042281;28;20059;-73
2024/03/02 10:39:08;;;;;;;7.00;1.52;;;;;;;;;;5039552;28;20078;-73
2024/03/02 10:41:40;;;;;;;5.50;1.30;;;;;;;;;;5039659;28;20041;-73
2024/03/02 10:44:11;;;;;;;12.98;1.50;;;;;;;;;;5040382;28;20641;-72
2024/03/02 10:46:43;;;;;;;8.93;1.13;;;;;;;;;;5040221;28;20511;-73
2024/03/02 10:49:16;;;;;;;10.77;2.45;;;;;;;;;;5040036;28;20041;-73
2024/03/02 10:51:50;;;;;;;6.85;1.25;;;;;;;;;;5039884;28;20508;-75
2024/03/02 10:54:26;;;;;;;7.40;1.23;;;;;;;;;;5040052;28;20052;-73
2024/03/02 10:57:00;;;;;;;6.63;1.70;;;;;;;;;;5040873;28;20049;-73
2024/03/02 10:59:36;;;;;;;19.58;1.92;;;;;;;;;;5042879;28;20057;-72
2024/03/02 11:02:13;;;;;;;12.90;1.30;;;;;;;;;;5041536;28;20506;-73
2024/03/02 11:04:44;;;;;;;7.45;1.38;;;;;;;;;;5041988;28;20052;-72
2024/03/02 11:07:14;;;;;;;14.63;1.50;;;;;;;;;;5041527;28;20567;-76
2024/03/02 11:10:08;;;;;;;11.00;1.77;;;;;;;;;;5043025;28;20528;-73
2024/03/02 11:12:54;;;;;;;7.57;1.23;;;;;;;;;;5041376;28;20115;-72
2024/03/02 11:15:26;;;;;;;7.57;0.90;;;;;;;;;;5041720;28;20056;-73
2024/03/02 11:17:58;;;;;;;5.70;1.40;;;;;;;;;;5041753;28;20048;-72
2024/03/02 11:20:30;;;;;;;6.78;1.30;;;;;;;;;;5041674;28;20049;-73
2024/03/02 11:23:08;;;;;;;8.93;1.63;;;;;;;;;;5041675;28;20053;-72
2024/03/02 11:25:39;;;;;;;11.07;1.10;;;;;;;;;;5041751;28;20060;-73
2024/03/02 11:28:09;;;;;;;10.15;1.27;;;;;;;;;;5040766;28;20052;-72
2024/03/02 11:30:42;;;;;;;11.75;1.55;;;;;;;;;;5041282;28;20061;-72
2024/03/02 11:33:14;;;;;;;6.20;1.42;;;;;;;;;;5041570;28;20049;-74
2024/03/02 11:35:47;;;;;;;8.40;1.40;;;;;;;;;;5041289;28;20053;-74
2024/03/02 11:38:19;;;;;;;12.70;1.92;;;;;;;;;;5041220;28;20053;-74
2024/03/02 11:40:50;;;;;;;14.27;1.92;;;;;;;;;;5039979;28;20045;-73
2024/03/02 11:43:21;;;;;;;21.25;2.22;;;;;;;;;;5041738;28;20056;-75
2024/03/02 11:45:59;;;;;;;12.05;1.75;;;;;;;;;;5041738;28;20041;-74
2024/03/02 11:48:30;;;;;;;8.02;1.52;;;;;;;;;;5041538;28;20041;-74
2024/03/02 11:51:02;;;;;;;9.15;1.50;;;;;;;;;;5040716;28;20049;-72
2024/03/02 11:53:36;;;;;;;6.35;1.75;;;;;;;;;;5043706;28;20483;-74
2024/03/02 11:56:09;;;;;;;11.55;1.25;;;;;;;;;;5045314;28;20051;-74
2024/03/02 11:58:41;;;;;;;5.00;1.25;;;;;;;;;;5044767;28;20056;-75
2024/03/02 12:01:13;;;;;;;9.38;1.80;;;;;;;;;;5045508;28;20052;-73
2024/03/02 12:03:44;;;;;;;11.93;1.77;;;;;;;;;;5044749;28;20451;-74
2024/03/02 12:06:15;;;;;;;2.10;0.80;;;;;;;;;;5044570;28;20041;-74
2024/03/02 12:08:45;;;;;;;2.88;1.00;;;;;;;;;;5044800;28;20049;-76
2024/03/02 12:11:16;;;;;;;11.52;1.30;;;;;;;;;;5044993;28;20518;-73
2024/03/02 12:13:55;;;;;;;3.17;0.88;;;;;;;;;;5043028;28;20049;-73
2024/03/02 12:16:26;;;;;;;7.80;1.38;;;;;;;;;;5044888;28;20045;-73
2024/03/02 12:18:56;;;;;;;12.30;1.88;;;;;;;;;;5044567;28;20048;-73
2024/03/02 12:21:29;;;;;;;14.00;3.08;;;;;;;;;;5044355;28;20055;-74
2024/03/02 12:24:00;;;;;;;6.13;1.20;;;;;;;;;;5043807;28;20079;-73
2024/03/02 12:26:30;;;;;;;5.53;1.20;;;;;;;;;;5044599;28;20056;-78
2024/03/02 12:29:01;;;;;;;9.73;5.22;;;;;;;;;;5044335;28;20052;-73
2024/03/02 12:31:32;;;;;;;6.90;1.73;;;;;;;;;;5044565;28;20055;-74
2024/03/02 12:34:05;;;;;;;3.35;0.85;;;;;;;;;;5044277;28;20406;-77
2024/03/02 12:36:42;;;;;;;3.05;1.50;;;;;;;;;;5044375;28;20048;-74
2024/03/02 12:39:12;;;;;;;7.00;2.22;;;;;;;;;;5044908;28;20052;-73
2024/03/02 12:41:43;;;;;;;5.68;1.80;;;;;;;;;;5043565;28;20056;-73
2024/03/02 12:44:14;;;;;;;9.00;1.23;;;;;;;;;;5043976;28;20056;-73
2024/03/02 12:46:46;;;;;;;7.88;1.60;;;;;;;;;;5042347;28;20049;-77
2024/03/02 12:49:16;;;;;;;2.80;1.40;;;;;;;;;;5044545;28;20373;-73
2024/03/02 12:51:52;;;;;;;5.88;1.70;;;;;;;;;;5042804;28;20045;-75
2024/03/02 12:54:25;;;;;;;3.50;1.40;;;;;;;;;;5043916;28;20064;-74
2024/03/02 12:56:56;;;;;;;3.80;1.60;;;;;;;;;;5043675;28;20424;-74
2024/03/02 12:59:27;;;;;;;4.53;2.10;;;;;;;;;;5042784;28;20060;-73
2024/03/02 13:01:58;;;;;;;6.45;2.17;;;;;;;;;;5043829;28;20053;-74
2024/03/02 13:04:31;;;;;;;2.95;1.90;;;;;;;;;;5043233;28;20408;-80
2024/03/02 13:07:02;;;;;;;12.60;1.73;;;;;;;;;;5043826;28;20056;-78
2024/03/02 13:09:33;;;;;;;8.43;2.30;;;;;;;;;;5043034;28;20053;-76
2024/03/02 13:12:05;;;;;;;4.75;2.05;;;;;;;;;;5043377;28;20060;-74
2024/03/02 13:14:37;;;;;;;3.53;1.80;;;;;;;;;;5042674;28;20065;-73
2024/03/02 13:17:14;;;;;;;5.43;1.75;;;;;;;;;;5043260;28;20064;-78
2024/03/02 13:19:53;;;;;;;7.90;2.05;;;;;;;;;;5043571;28;20392;-74
2024/03/02 13:22:26;;;;;;;2.65;1.52;;;;;;;;;;5041728;28;20064;-74
2024/03/02 13:24:59;;;;;;;6.60;2.10;;;;;;;;;;5041978;28;20063;-73
2024/03/02 13:27:31;;;;;;;8.48;2.00;;;;;;;;;;5042201;28;20057;-75
2024/03/02 13:30:05;;;;;;;8.10;1.95;;;;;;;;;;5042650;28;20053;-75
2024/03/02 13:32:38;;;;;;;4.88;1.90;;;;;;;;;;5042617;28;20048;-74
2024/03/02 13:35:11;;;;;;;4.72;2.15;;;;;;;;;;5042920;28;20048;-74
2024/03/02 13:37:42;;;;;;;6.00;2.75;;;;;;;;;;5043180;28;20512;-75
2024/03/02 13:40:17;;;;;;;3.08;2.28;;;;;;;;;;5042705;28;20056;-75
2024/03/02 13:42:48;;;;;;;5.78;2.20;;;;;;;;;;5042565;28;20067;-74
2024/03/02 13:45:20;;;;;;;11.98;2.30;;;;;;;;;;5042995;28;20060;-74
2024/03/02 13:47:52;;;;;;;5.18;2.22;;;;;;;;;;5042590;28;20049;-74
2024/03/02 13:50:22;;;;;;;3.90;2.20;;;;;;;;;;5042552;28;20040;-75
2024/03/02 13:52:54;;;;;;;9.82;2.80;;;;;;;;;;5042791;28;20045;-74
2024/03/02 13:55:25;;;;;;;3.65;2.20;;;;;;;;;;5041093;28;20060;-75
2024/03/02 13:57:55;;;;;;;10.10;3.78;;;;;;;;;;5041342;28;20049;-74
2024/03/02 14:00:26;;;;;;;3.75;2.40;;;;;;;;;;5042516;28;20408;-73
2024/03/02 14:02:56;;;;;;;7.93;2.47;;;;;;;;;;5042523;28;20040;-75
2024/03/02 14:05:27;;;;;;;2.53;2.22;;;;;;;;;;5042811;28;20519;-75
2024/03/02 14:08:00;;;;;;;3.95;2.38;;;;;;;;;;5042704;28;20056;-77
2024/03/02 14:10:30;;;;;;;3.45;2.15;;;;;;;;;;5043566;28;20040;-74
2024/03/02 14:13:00;;;;;;;6.38;2.70;;;;;;;;;;5043202;28;20033;-73
2024/03/02 14:15:33;;;;;;;4.85;2.80;;;;;;;;;;5041813;28;20053;-74
2024/03/02 14:18:04;;;;;;;10.32;3.40;;;;;;;;;;5041411;28;20059;-74
2024/03/02 14:20:35;;;;;;;6.40;2.75;;;;;;;;;;5040600;28;20053;-74
2024/03/02 14:23:05;;;;;;;4.03;2.50;;;;;;;;;;5042029;28;20045;-73
2024/03/02 14:25:36;;;;;;;3.63;2.10;;;;;;;;;;5040911;28;20049;-82
2024/03/02 14:28:08;;;;;;;5.38;2.28;;;;;;;;;;5042267;28;20049;-74
2024/03/02 14:31:00;;;;;;;3.70;1.73;;;;;;;;;;5041697;28;20404;-74
2024/03/02 14:33:32;;;;;;;5.65;2.25;;;;;;;;;;5042224;28;20430;-74
2024/03/02 14:36:04;;;;;;;4.10;2.60;;;;;;;;;;5041800;28;20044;-75
2024/03/02 14:38:36;;;;;;;4.90;2.40;;;;;;;;;;5042459;28;20053;-74
2024/03/02 14:41:06;;;;;;;8.52;2.28;;;;;;;;;;5042146;28;20044;-75
2024/03/02 14:43:37;;;;;;;2.80;2.40;;;;;;;;;;5042427;28;20045;-78
2024/03/02 14:46:08;;;;;;;5.38;2.30;;;;;;;;;;5041807;28;20048;-73
2024/03/02 14:51:41;;;;;;;2.85;2.40;;;;;;;;;;5041440;28;20052;-73
2024/03/02 14:54:11;;;;;;;4.72;2.75;;;;;;;;;;5041820;28;20041;-73
2024/03/02 14:56:42;;;;;;;4.85;2.30;;;;;;;;;;5041792;28;20049;-76
2024/03/02 14:59:12;;;;;;;5.43;2.65;;;;;;;;;;5041950;28;20060;-74
2024/03/02 15:01:46;;;;;;;4.70;2.72;;;;;;;;;;5041796;28;20056;-75
2024/03/02 15:04:18;;;;;;;4.63;2.50;;;;;;;;;;5041668;28;20056;-73
2024/03/02 15:06:50;;;;;;;2.83;2.20;;;;;;;;;;5041920;28;20045;-74
2024/03/02 15:09:21;;;;;;;6.40;2.80;;;;;;;;;;5041644;28;20110;-74
2024/03/02 15:11:53;;;;;;;3.65;2.60;;;;;;;;;;5041803;28;20049;-75
2024/03/02 15:14:23;;;;;;;4.13;2.65;;;;;;;;;;5024649;28;20542;-74
2024/03/02 15:16:53;;;;;;;5.60;2.75;;;;;;;;;;5041771;28;20431;-74
2024/03/02 15:19:24;;;;;;;3.40;2.70;;;;;;;;;;5041585;28;20045;-75
2024/03/02 15:21:55;;;;;;;5.13;3.08;;;;;;;;;;5041830;28;20041;-74
2024/03/02 15:24:25;;;;;;;4.38;2.38;;;;;;;;;;5041936;28;20049;-74
2024/03/02 15:26:56;;;;;;;3.45;2.40;;;;;;;;;;5042510;28;20064;-73
2024/03/02 15:29:31;;;;;;;8.02;4.03;;;;;;;;;;5045632;28;20415;-74